Página principal
METAR-TAF:

METAR-TAF

Aeroportos :

Ecaterimburgo, Rússia

Aeroporto Internacional de Ecaterimburgo-Koltsovo

latitude: 56-50N, longitude: 060-38E, altura: 237 m

Observação actual do tempo

O boletim foi feito há 25 minutos, às 17:00 UTC
Vento 10 kt de su-sudoeste
Temperatura 19°C
Humidade 73%
Pressão 1006 hPa
Visibilidade 10 km ou mais
Nuvens dispersasa uma altura de 5000 ft, Cumulonimbus.

METAR: USSS 281700Z 21005MPS 9999 SCT050CB 19/14 Q1006 R26R/010060 TEMPO 23014MPS RMK QFE734/0979

Hora: 22:25 (17:25 UTC)

Previsão

O boletim foi feito há 3 horas e 26 minutos, às 13:59 UTC
Previsão válida de 28 às 15 UTC a 29 às 15 UTC
Vento 8 kt de sudoeste
Visibilidade 10 km ou mais
Nuvens dispersasa uma altura de 1100 ft
Nuvens dispersasa uma altura de 2000 ft, Cumulonimbus.
Temporariamente
de 28 às 15 UTC a 28 às 22 UTC
Vento 16 kt de sudoeste

TAF: USSS 281359Z 2815/2915 22004MPS 9999 SCT011 SCT020CB TEMPO 2815/2822 23008MPS

Observações e previsões do tempo de mais de 4000 aeroportos (mensagens METAR e TAF).

As estações disponíveis são os pontos amarelos e vermelhos sobre o mapa.

Mova o rato sobre o mapa para ver o nome da estação.

Depois clique no ponto para visualizar as observações e previsões meteorológicas.

Para alterar o mapa : clique nos botões verdes com uma cruz preta para aumentar o zoom; no botão verde com uma pitada de zoom; ou nas setas verdes para mapas adjacentes.


METAR-TAF: